BAW98 CYYZ-EGLL
Flight info
| Callsign | BAW98 |
|---|---|
| Flight time | 6h 8m |
| Altitude | 37000 |
| Route | VERDO7 IPTOS Q921 AGLUK DCT ANCER N749A LOMSI/M085F390 DCT 55N050W 56N040W 57N030W 57N020W DCT PIKIL DCT SOVED/N0493F390 DCT NIBOG DCT NIPIT DCT BOFUM Q37 MALUD Q38 NUGRA |
| Aircraft | A35K/H-SDE2E3GHIJ3J4J5LM1ORWXY/LB1D1 |
Departure
| Time | 2026-05-07 11:15 |
|---|---|
| Airport | Toronto Pearson International Airport (CYYZ) |
Arrival
| Time | 2026-05-07 17:23 |
|---|---|
| Airport | London Heathrow Airport (EGLL) |
| Time | Latitude | Longitude | Altitude | Speed | Heading |
|---|---|---|---|---|---|
| 2026-05-07 09:59 | 43.67691 | -79.61433 | 564 ft | 0 kts | 100° |
| 2026-05-07 11:03 | 43.67695 | -79.61462 | 570 ft | 4 kts | 100° |
| 2026-05-07 11:03 | 43.67700 | -79.61499 | 573 ft | 4 kts | 99° |
| 2026-05-07 11:04 | 43.67704 | -79.61536 | 571 ft | 4 kts | 99° |
| 2026-05-07 11:04 | 43.67709 | -79.61572 | 568 ft | 4 kts | 99° |
| 2026-05-07 11:04 | 43.67713 | -79.61609 | 571 ft | 4 kts | 99° |
| 2026-05-07 11:04 | 43.67717 | -79.61641 | 574 ft | 1 kts | 99° |
| 2026-05-07 11:05 | 43.67718 | -79.61647 | 574 ft | 0 kts | 99° |
| 2026-05-07 11:08 | 43.67715 | -79.61641 | 566 ft | 2 kts | 114° |
| 2026-05-07 11:08 | 43.67690 | -79.61627 | 573 ft | 7 kts | 179° |
| 2026-05-07 11:08 | 43.67646 | -79.61702 | 571 ft | 11 kts | 271° |
| 2026-05-07 11:09 | 43.67680 | -79.61789 | 573 ft | 11 kts | 310° |
| 2026-05-07 11:09 | 43.67738 | -79.61865 | 574 ft | 12 kts | 317° |
| 2026-05-07 11:09 | 43.67802 | -79.61948 | 573 ft | 14 kts | 316° |
| 2026-05-07 11:09 | 43.67879 | -79.62046 | 572 ft | 16 kts | 329° |
| 2026-05-07 11:10 | 43.67984 | -79.62120 | 569 ft | 17 kts | 323° |
| 2026-05-07 11:10 | 43.68068 | -79.62228 | 571 ft | 17 kts | 317° |
| 2026-05-07 11:10 | 43.68157 | -79.62344 | 574 ft | 17 kts | 317° |
| 2026-05-07 11:10 | 43.68247 | -79.62452 | 573 ft | 17 kts | 321° |
| 2026-05-07 11:11 | 43.68339 | -79.62567 | 572 ft | 18 kts | 316° |
| 2026-05-07 11:11 | 43.68431 | -79.62689 | 572 ft | 20 kts | 316° |
| 2026-05-07 11:11 | 43.68536 | -79.62828 | 575 ft | 22 kts | 317° |
| 2026-05-07 11:11 | 43.68652 | -79.62977 | 571 ft | 24 kts | 317° |
| 2026-05-07 11:12 | 43.68773 | -79.63134 | 574 ft | 23 kts | 315° |
| 2026-05-07 11:12 | 43.68889 | -79.63288 | 574 ft | 23 kts | 315° |
| 2026-05-07 11:12 | 43.69002 | -79.63436 | 575 ft | 22 kts | 316° |
| 2026-05-07 11:12 | 43.69092 | -79.63521 | 575 ft | 10 kts | 2° |
| 2026-05-07 11:13 | 43.69148 | -79.63480 | 577 ft | 10 kts | 39° |
| 2026-05-07 11:13 | 43.69217 | -79.63426 | 574 ft | 15 kts | 16° |
| 2026-05-07 11:13 | 43.69341 | -79.63423 | 578 ft | 19 kts | 346° |
| 2026-05-07 11:13 | 43.69382 | -79.63548 | 577 ft | 14 kts | 242° |
| 2026-05-07 11:14 | 43.69323 | -79.63641 | 573 ft | 9 kts | 226° |
| 2026-05-07 11:14 | 43.69185 | -79.63840 | 577 ft | 59 kts | 226° |
| 2026-05-07 11:14 | 43.68760 | -79.64458 | 575 ft | 118 kts | 226° |
| 2026-05-07 11:14 | 43.68073 | -79.65452 | 583 ft | 166 kts | 228° |
| 2026-05-07 11:15 | 43.67311 | -79.66527 | 1346 ft | 153 kts | 226° |
| 2026-05-07 11:15 | 43.66467 | -79.67375 | 2015 ft | 150 kts | 197° |
| 2026-05-07 11:15 | 43.65370 | -79.67311 | 2318 ft | 172 kts | 157° |
| 2026-05-07 11:15 | 43.64318 | -79.66394 | 2785 ft | 185 kts | 146° |
| 2026-05-07 11:16 | 43.63222 | -79.65322 | 3211 ft | 202 kts | 148° |
| 2026-05-07 11:16 | 43.61945 | -79.64324 | 3512 ft | 220 kts | 155° |
| 2026-05-07 11:16 | 43.60476 | -79.63445 | 3946 ft | 233 kts | 160° |
| 2026-05-07 11:16 | 43.58885 | -79.62629 | 4290 ft | 252 kts | 162° |
| 2026-05-07 11:17 | 43.57201 | -79.61832 | 4932 ft | 260 kts | 163° |
| 2026-05-07 11:17 | 43.55462 | -79.61038 | 5610 ft | 266 kts | 164° |
| 2026-05-07 11:17 | 43.53695 | -79.60169 | 6330 ft | 275 kts | 158° |
| 2026-05-07 11:17 | 43.52142 | -79.58626 | 7029 ft | 285 kts | 132° |
| 2026-05-07 11:18 | 43.51224 | -79.56200 | 7812 ft | 293 kts | 104° |
| 2026-05-07 11:18 | 43.51107 | -79.54299 | 8324 ft | 298 kts | 85° |
| 2026-05-07 11:18 | 43.51728 | -79.50563 | 9278 ft | 307 kts | 74° |
| 2026-05-07 11:18 | 43.52324 | -79.47695 | 10006 ft | 314 kts | 75° |
| 2026-05-07 11:19 | 43.52725 | -79.45711 | 10368 ft | 324 kts | 75° |
| 2026-05-07 11:19 | 43.53404 | -79.42661 | 10707 ft | 344 kts | 69° |
| 2026-05-07 11:19 | 43.54436 | -79.39591 | 11088 ft | 362 kts | 62° |
| 2026-05-07 11:19 | 43.55607 | -79.36439 | 11482 ft | 379 kts | 62° |
| 2026-05-07 11:20 | 43.56831 | -79.33129 | 11855 ft | 395 kts | 63° |
| 2026-05-07 11:20 | 43.58092 | -79.29688 | 12325 ft | 407 kts | 63° |
| 2026-05-07 11:20 | 43.59376 | -79.26163 | 12947 ft | 415 kts | 63° |
| 2026-05-07 11:20 | 43.60680 | -79.22572 | 13585 ft | 421 kts | 63° |
| 2026-05-07 11:21 | 43.61996 | -79.18938 | 14205 ft | 427 kts | 63° |
| 2026-05-07 11:21 | 43.63332 | -79.15243 | 14802 ft | 432 kts | 63° |
| 2026-05-07 11:21 | 43.64679 | -79.11512 | 15398 ft | 438 kts | 63° |
| 2026-05-07 11:21 | 43.66045 | -79.07722 | 15999 ft | 443 kts | 62° |
| 2026-05-07 11:22 | 43.67408 | -79.03937 | 16586 ft | 448 kts | 62° |
| 2026-05-07 11:22 | 43.68820 | -79.00010 | 17187 ft | 454 kts | 62° |
| 2026-05-07 11:22 | 43.70231 | -78.96078 | 17772 ft | 459 kts | 62° |
| 2026-05-07 11:22 | 43.71636 | -78.92160 | 18357 ft | 464 kts | 62° |
| 2026-05-07 11:23 | 43.73093 | -78.88093 | 18876 ft | 470 kts | 62° |
| 2026-05-07 11:23 | 43.74549 | -78.84021 | 19403 ft | 475 kts | 62° |
| 2026-05-07 11:23 | 43.76021 | -78.79897 | 19939 ft | 480 kts | 62° |
| 2026-05-07 11:23 | 43.77508 | -78.75724 | 20497 ft | 486 kts | 62° |
| 2026-05-07 11:24 | 43.78978 | -78.71532 | 21036 ft | 491 kts | 63° |
| 2026-05-07 11:24 | 43.80458 | -78.67239 | 21573 ft | 497 kts | 63° |
| 2026-05-07 11:24 | 43.81951 | -78.62904 | 22120 ft | 502 kts | 63° |
| 2026-05-07 11:24 | 43.83464 | -78.58513 | 22675 ft | 507 kts | 63° |
| 2026-05-07 11:25 | 43.84988 | -78.54090 | 23205 ft | 513 kts | 63° |
| 2026-05-07 11:25 | 43.86533 | -78.49598 | 23719 ft | 518 kts | 63° |
| 2026-05-07 11:25 | 43.88086 | -78.45080 | 24161 ft | 523 kts | 64° |
| 2026-05-07 11:25 | 43.89655 | -78.40508 | 24659 ft | 527 kts | 64° |
| 2026-05-07 11:26 | 43.91230 | -78.35909 | 25140 ft | 531 kts | 64° |
| 2026-05-07 11:26 | 43.92820 | -78.31263 | 25614 ft | 535 kts | 64° |
| 2026-05-07 11:26 | 43.94417 | -78.26584 | 26089 ft | 539 kts | 64° |
| 2026-05-07 11:26 | 43.96025 | -78.21867 | 26569 ft | 542 kts | 64° |
| 2026-05-07 11:27 | 43.97638 | -78.17126 | 27022 ft | 546 kts | 64° |
| 2026-05-07 11:27 | 43.99268 | -78.12329 | 27528 ft | 550 kts | 64° |
| 2026-05-07 11:27 | 44.00901 | -78.07512 | 27992 ft | 554 kts | 64° |
| 2026-05-07 11:27 | 44.02544 | -78.02658 | 28465 ft | 557 kts | 64° |
| 2026-05-07 11:28 | 44.04199 | -77.97757 | 28914 ft | 561 kts | 64° |
| 2026-05-07 11:28 | 44.05904 | -77.92701 | 29355 ft | 564 kts | 64° |
| 2026-05-07 11:28 | 44.07565 | -77.87768 | 29769 ft | 568 kts | 64° |
| 2026-05-07 11:28 | 44.09269 | -77.82695 | 30157 ft | 571 kts | 64° |
| 2026-05-07 11:29 | 44.10957 | -77.77659 | 30471 ft | 575 kts | 64° |
| 2026-05-07 11:29 | 44.12643 | -77.72623 | 30913 ft | 574 kts | 64° |
| 2026-05-07 11:29 | 44.14326 | -77.67583 | 31355 ft | 574 kts | 64° |
| 2026-05-07 11:29 | 44.16005 | -77.62546 | 31788 ft | 574 kts | 64° |
| 2026-05-07 11:30 | 44.17686 | -77.57496 | 32218 ft | 574 kts | 65° |
| 2026-05-07 11:30 | 44.19398 | -77.52477 | 32627 ft | 573 kts | 61° |
| 2026-05-07 11:30 | 44.21511 | -77.47776 | 33042 ft | 570 kts | 51° |
| 2026-05-07 11:30 | 44.23897 | -77.43381 | 33462 ft | 569 kts | 49° |
| 2026-05-07 11:31 | 44.26356 | -77.39071 | 33893 ft | 568 kts | 48° |
| 2026-05-07 11:31 | 44.28847 | -77.34794 | 34244 ft | 567 kts | 48° |
| 2026-05-07 11:31 | 44.31344 | -77.30518 | 34589 ft | 566 kts | 48° |
| 2026-05-07 11:31 | 44.33821 | -77.26256 | 34946 ft | 565 kts | 48° |
| 2026-05-07 11:32 | 44.38728 | -77.17718 | 35587 ft | 563 kts | 48° |
| 2026-05-07 11:32 | 44.41172 | -77.13430 | 35903 ft | 563 kts | 48° |
| 2026-05-07 11:32 | 44.43601 | -77.09153 | 36201 ft | 562 kts | 48° |
| 2026-05-07 11:33 | 44.46037 | -77.04856 | 36488 ft | 562 kts | 48° |
| 2026-05-07 11:33 | 44.48458 | -77.00577 | 36743 ft | 562 kts | 48° |
| 2026-05-07 11:33 | 44.50890 | -76.96277 | 36940 ft | 564 kts | 48° |
| 2026-05-07 11:34 | 44.55788 | -76.87602 | 36957 ft | 569 kts | 48° |
| 2026-05-07 11:34 | 44.60684 | -76.78900 | 36938 ft | 567 kts | 49° |
| 2026-05-07 11:35 | 44.65561 | -76.70206 | 36938 ft | 566 kts | 49° |
| 2026-05-07 11:35 | 44.70417 | -76.61524 | 36933 ft | 566 kts | 49° |
| 2026-05-07 11:36 | 44.75277 | -76.52807 | 36929 ft | 566 kts | 49° |
| 2026-05-07 11:36 | 44.80127 | -76.44082 | 36924 ft | 565 kts | 49° |
| 2026-05-07 11:37 | 44.84963 | -76.35358 | 36919 ft | 565 kts | 49° |
| 2026-05-07 11:37 | 44.89786 | -76.26607 | 36908 ft | 566 kts | 50° |
| 2026-05-07 11:37 | 44.91900 | -76.21907 | 36911 ft | 569 kts | 61° |
| 2026-05-07 11:38 | 44.93502 | -76.16717 | 36907 ft | 569 kts | 69° |
| 2026-05-07 11:38 | 44.96166 | -76.06274 | 36901 ft | 570 kts | 71° |
| 2026-05-07 11:39 | 44.98702 | -75.95649 | 36894 ft | 570 kts | 71° |
| 2026-05-07 11:39 | 45.01231 | -75.85037 | 36890 ft | 571 kts | 71° |
| 2026-05-07 11:40 | 45.03784 | -75.74408 | 36883 ft | 571 kts | 71° |
| 2026-05-07 11:40 | 45.06336 | -75.63781 | 36876 ft | 571 kts | 71° |
| 2026-05-07 11:41 | 45.08878 | -75.53148 | 36875 ft | 571 kts | 71° |
| 2026-05-07 11:41 | 45.11410 | -75.42495 | 36870 ft | 571 kts | 71° |
| 2026-05-07 11:42 | 45.13930 | -75.31838 | 36868 ft | 571 kts | 71° |
| 2026-05-07 11:42 | 45.16441 | -75.21167 | 36861 ft | 571 kts | 71° |
| 2026-05-07 11:43 | 45.18942 | -75.10487 | 36866 ft | 571 kts | 71° |
| 2026-05-07 11:43 | 45.21431 | -74.99810 | 36865 ft | 571 kts | 72° |
| 2026-05-07 11:44 | 45.23986 | -74.89134 | 36853 ft | 571 kts | 66° |
| 2026-05-07 11:44 | 45.25782 | -74.84126 | 36855 ft | 568 kts | 55° |
| 2026-05-07 11:44 | 45.28141 | -74.79662 | 36851 ft | 563 kts | 45° |
| 2026-05-07 11:45 | 45.33421 | -74.71450 | 36838 ft | 563 kts | 43° |
| 2026-05-07 11:45 | 45.38830 | -74.63431 | 36834 ft | 563 kts | 43° |
| 2026-05-07 11:46 | 45.44238 | -74.55375 | 36842 ft | 563 kts | 43° |
| 2026-05-07 11:46 | 45.49624 | -74.47255 | 36821 ft | 563 kts | 43° |
| 2026-05-07 11:47 | 45.54983 | -74.39126 | 36822 ft | 563 kts | 43° |
| 2026-05-07 11:47 | 45.60332 | -74.30983 | 36824 ft | 562 kts | 43° |
| 2026-05-07 11:48 | 45.65681 | -74.22819 | 36815 ft | 562 kts | 44° |
| 2026-05-07 11:48 | 45.70983 | -74.14707 | 36815 ft | 562 kts | 44° |
| 2026-05-07 11:49 | 45.76325 | -74.06512 | 36817 ft | 562 kts | 44° |
| 2026-05-07 11:49 | 45.81648 | -73.98315 | 36812 ft | 562 kts | 44° |
| 2026-05-07 11:50 | 45.86969 | -73.90098 | 36808 ft | 562 kts | 44° |
| 2026-05-07 11:50 | 45.92275 | -73.81882 | 36800 ft | 561 kts | 44° |
| 2026-05-07 11:51 | 45.97581 | -73.73639 | 36787 ft | 561 kts | 45° |
| 2026-05-07 11:51 | 46.02877 | -73.65387 | 36790 ft | 560 kts | 45° |
| 2026-05-07 11:52 | 46.08153 | -73.57143 | 36788 ft | 560 kts | 45° |
| 2026-05-07 11:52 | 46.13425 | -73.48879 | 36786 ft | 560 kts | 45° |
| 2026-05-07 11:53 | 46.18692 | -73.40597 | 36784 ft | 559 kts | 45° |
| 2026-05-07 11:53 | 46.23953 | -73.32323 | 36780 ft | 559 kts | 45° |
| 2026-05-07 11:54 | 46.29194 | -73.24107 | 36777 ft | 559 kts | 45° |
| 2026-05-07 11:54 | 46.33604 | -73.17177 | 36772 ft | 559 kts | 45° |
| 2026-05-07 11:55 | 46.38858 | -73.08891 | 36775 ft | 559 kts | 45° |
| 2026-05-07 11:55 | 46.44106 | -73.00588 | 36769 ft | 558 kts | 45° |
| 2026-05-07 11:56 | 46.49338 | -72.92284 | 36776 ft | 558 kts | 45° |
| 2026-05-07 11:56 | 46.54565 | -72.83961 | 36776 ft | 557 kts | 46° |
| 2026-05-07 11:57 | 46.59791 | -72.75616 | 36775 ft | 557 kts | 46° |
| 2026-05-07 11:57 | 46.64996 | -72.67277 | 36777 ft | 557 kts | 46° |
| 2026-05-07 11:58 | 46.70193 | -72.58928 | 36770 ft | 556 kts | 46° |
| 2026-05-07 11:58 | 46.75384 | -72.50561 | 36771 ft | 556 kts | 46° |
| 2026-05-07 11:59 | 46.80564 | -72.42183 | 36775 ft | 556 kts | 46° |
| 2026-05-07 11:59 | 46.85738 | -72.33791 | 36773 ft | 556 kts | 46° |
| 2026-05-07 12:00 | 46.90896 | -72.25401 | 36775 ft | 555 kts | 46° |
| 2026-05-07 12:00 | 46.96056 | -72.16980 | 36775 ft | 555 kts | 47° |
| 2026-05-07 12:01 | 47.01208 | -72.08543 | 36776 ft | 555 kts | 47° |
| 2026-05-07 12:01 | 47.06341 | -72.00114 | 36769 ft | 555 kts | 47° |
| 2026-05-07 12:02 | 47.11479 | -71.91651 | 36768 ft | 554 kts | 47° |
| 2026-05-07 12:02 | 47.16602 | -71.83184 | 36763 ft | 554 kts | 47° |
| 2026-05-07 12:03 | 47.21713 | -71.74709 | 36754 ft | 554 kts | 47° |
| 2026-05-07 12:03 | 47.26813 | -71.66228 | 36749 ft | 553 kts | 47° |
| 2026-05-07 12:04 | 47.31897 | -71.57746 | 36739 ft | 552 kts | 47° |
| 2026-05-07 12:04 | 47.36975 | -71.49248 | 36729 ft | 552 kts | 48° |
| 2026-05-07 12:05 | 47.42033 | -71.40754 | 36726 ft | 551 kts | 48° |
| 2026-05-07 12:05 | 47.47093 | -71.32232 | 36717 ft | 551 kts | 48° |
| 2026-05-07 12:06 | 47.52139 | -71.23707 | 36710 ft | 551 kts | 48° |
| 2026-05-07 12:06 | 47.57174 | -71.15173 | 36713 ft | 550 kts | 48° |
| 2026-05-07 12:07 | 47.62205 | -71.06619 | 36719 ft | 550 kts | 49° |
| 2026-05-07 12:07 | 47.67219 | -70.98066 | 36725 ft | 549 kts | 49° |
| 2026-05-07 12:08 | 47.72224 | -70.89501 | 36738 ft | 549 kts | 49° |
| 2026-05-07 12:08 | 47.77219 | -70.80926 | 36743 ft | 548 kts | 49° |
| 2026-05-07 12:09 | 47.82171 | -70.72398 | 36741 ft | 548 kts | 49° |
| 2026-05-07 12:09 | 47.87145 | -70.63804 | 36747 ft | 548 kts | 49° |
| 2026-05-07 12:10 | 47.92113 | -70.55196 | 36738 ft | 547 kts | 49° |
| 2026-05-07 12:10 | 47.97100 | -70.46523 | 36739 ft | 547 kts | 50° |
| 2026-05-07 12:11 | 48.02039 | -70.37907 | 36742 ft | 547 kts | 50° |
| 2026-05-07 12:11 | 48.06979 | -70.29261 | 36746 ft | 547 kts | 50° |
| 2026-05-07 12:12 | 48.11884 | -70.20649 | 36737 ft | 547 kts | 50° |
| 2026-05-07 12:12 | 48.16834 | -70.11927 | 36733 ft | 546 kts | 50° |
| 2026-05-07 12:13 | 48.21749 | -70.03243 | 36734 ft | 546 kts | 50° |
| 2026-05-07 12:13 | 48.26653 | -69.94549 | 36722 ft | 546 kts | 50° |
| 2026-05-07 12:14 | 48.31553 | -69.85833 | 36724 ft | 546 kts | 50° |
| 2026-05-07 12:14 | 48.36410 | -69.77167 | 36721 ft | 546 kts | 50° |
| 2026-05-07 12:15 | 48.41322 | -69.68372 | 36722 ft | 546 kts | 51° |
| 2026-05-07 12:15 | 48.46202 | -69.59605 | 36719 ft | 545 kts | 51° |
| 2026-05-07 12:16 | 48.51064 | -69.50842 | 36716 ft | 545 kts | 51° |
| 2026-05-07 12:16 | 48.55861 | -69.41992 | 36717 ft | 544 kts | 56° |
| 2026-05-07 12:17 | 48.60179 | -69.32692 | 36715 ft | 544 kts | 57° |
| 2026-05-07 12:17 | 48.64440 | -69.23246 | 36715 ft | 544 kts | 57° |
| 2026-05-07 12:18 | 48.68685 | -69.13777 | 36716 ft | 543 kts | 57° |
| 2026-05-07 12:18 | 48.72944 | -69.04262 | 36715 ft | 543 kts | 57° |
| 2026-05-07 12:19 | 48.77149 | -68.94847 | 36713 ft | 542 kts | 57° |
| 2026-05-07 12:19 | 48.81376 | -68.85355 | 36713 ft | 542 kts | 57° |
| 2026-05-07 12:20 | 48.85585 | -68.75869 | 36713 ft | 542 kts | 57° |
| 2026-05-07 12:20 | 48.89785 | -68.66368 | 36710 ft | 541 kts | 58° |
| 2026-05-07 12:21 | 48.93977 | -68.56852 | 36710 ft | 541 kts | 58° |
| 2026-05-07 12:21 | 48.98153 | -68.47337 | 36709 ft | 541 kts | 58° |
| 2026-05-07 12:22 | 49.02324 | -68.37801 | 36710 ft | 540 kts | 58° |
| 2026-05-07 12:22 | 49.06478 | -68.28271 | 36711 ft | 540 kts | 58° |
| 2026-05-07 12:23 | 49.10628 | -68.18714 | 36709 ft | 540 kts | 58° |
| 2026-05-07 12:23 | 49.14762 | -68.09162 | 36708 ft | 539 kts | 58° |
| 2026-05-07 12:24 | 49.18897 | -67.99573 | 36707 ft | 539 kts | 58° |
| 2026-05-07 12:24 | 49.22991 | -67.90042 | 36702 ft | 539 kts | 58° |
| 2026-05-07 12:25 | 49.27096 | -67.80452 | 36698 ft | 539 kts | 58° |
| 2026-05-07 12:25 | 49.31182 | -67.70873 | 36694 ft | 538 kts | 58° |
| 2026-05-07 12:26 | 49.35285 | -67.61219 | 36699 ft | 538 kts | 59° |
| 2026-05-07 12:26 | 49.39355 | -67.51610 | 36689 ft | 538 kts | 59° |
| 2026-05-07 12:27 | 49.43422 | -67.41973 | 36682 ft | 537 kts | 59° |
| 2026-05-07 12:27 | 49.47483 | -67.32314 | 36681 ft | 537 kts | 59° |
| 2026-05-07 12:28 | 49.51527 | -67.22659 | 36683 ft | 537 kts | 59° |
| 2026-05-07 12:28 | 49.55563 | -67.12992 | 36680 ft | 537 kts | 59° |
| 2026-05-07 12:29 | 49.59595 | -67.03296 | 36677 ft | 537 kts | 59° |
| 2026-05-07 12:29 | 49.63611 | -66.93604 | 36679 ft | 536 kts | 59° |
| 2026-05-07 12:30 | 49.67617 | -66.83901 | 36676 ft | 536 kts | 59° |
| 2026-05-07 12:30 | 49.71611 | -66.74186 | 36671 ft | 536 kts | 59° |
| 2026-05-07 12:31 | 49.75603 | -66.64445 | 36667 ft | 536 kts | 60° |
| 2026-05-07 12:31 | 49.79578 | -66.54710 | 36667 ft | 535 kts | 60° |
| 2026-05-07 12:32 | 49.83547 | -66.44955 | 36662 ft | 535 kts | 60° |
| 2026-05-07 12:32 | 49.87501 | -66.35199 | 36657 ft | 535 kts | 60° |
| 2026-05-07 12:33 | 49.93414 | -66.20544 | 36654 ft | 534 kts | 60° |
| 2026-05-07 12:33 | 49.97339 | -66.10768 | 36627 ft | 534 kts | 60° |
| 2026-05-07 12:34 | 50.01236 | -66.01029 | 36641 ft | 533 kts | 60° |
| 2026-05-07 12:34 | 50.05143 | -65.91223 | 36630 ft | 533 kts | 61° |
| 2026-05-07 12:35 | 50.09038 | -65.81413 | 36628 ft | 533 kts | 61° |
| 2026-05-07 12:35 | 50.12923 | -65.71593 | 36623 ft | 532 kts | 61° |
| 2026-05-07 12:36 | 50.16173 | -65.63348 | 36623 ft | 532 kts | 61° |
| 2026-05-07 12:36 | 50.20040 | -65.53504 | 36615 ft | 532 kts | 61° |
| 2026-05-07 12:37 | 50.23897 | -65.43651 | 36607 ft | 531 kts | 62° |
| 2026-05-07 12:37 | 50.27744 | -65.33784 | 36598 ft | 531 kts | 62° |
| 2026-05-07 12:38 | 50.31575 | -65.23922 | 36594 ft | 531 kts | 62° |
| 2026-05-07 12:38 | 50.35400 | -65.14036 | 36592 ft | 531 kts | 62° |
| 2026-05-07 12:39 | 50.39205 | -65.04165 | 36589 ft | 530 kts | 62° |
| 2026-05-07 12:39 | 50.43006 | -64.94267 | 36594 ft | 530 kts | 62° |
| 2026-05-07 12:40 | 50.46802 | -64.84343 | 36591 ft | 530 kts | 62° |
| 2026-05-07 12:40 | 50.50589 | -64.74406 | 36589 ft | 530 kts | 63° |
| 2026-05-07 12:41 | 50.54368 | -64.64451 | 36590 ft | 530 kts | 63° |
| 2026-05-07 12:41 | 50.58133 | -64.54495 | 36599 ft | 530 kts | 63° |
| 2026-05-07 12:42 | 50.61897 | -64.44503 | 36589 ft | 530 kts | 63° |
| 2026-05-07 12:42 | 50.65648 | -64.34513 | 36589 ft | 530 kts | 63° |
| 2026-05-07 12:43 | 50.69392 | -64.24495 | 36590 ft | 530 kts | 63° |
| 2026-05-07 12:43 | 50.73122 | -64.14479 | 36603 ft | 530 kts | 63° |
| 2026-05-07 12:44 | 50.76842 | -64.04448 | 36584 ft | 529 kts | 63° |
| 2026-05-07 12:44 | 50.80552 | -63.94401 | 36587 ft | 529 kts | 64° |
| 2026-05-07 12:45 | 50.84255 | -63.84336 | 36583 ft | 529 kts | 64° |
| 2026-05-07 12:45 | 50.87945 | -63.74273 | 36577 ft | 529 kts | 64° |
| 2026-05-07 12:46 | 50.91634 | -63.64171 | 36578 ft | 529 kts | 64° |
| 2026-05-07 12:46 | 50.95307 | -63.54067 | 36573 ft | 529 kts | 64° |
| 2026-05-07 12:47 | 50.98969 | -63.43954 | 36578 ft | 529 kts | 64° |
| 2026-05-07 12:47 | 51.02605 | -63.33877 | 36580 ft | 529 kts | 64° |
| 2026-05-07 12:48 | 51.06252 | -63.23728 | 36582 ft | 529 kts | 64° |
| 2026-05-07 12:48 | 51.09903 | -63.13533 | 36584 ft | 530 kts | 64° |
| 2026-05-07 12:49 | 51.13538 | -63.03339 | 36591 ft | 530 kts | 64° |
| 2026-05-07 12:49 | 51.17166 | -62.93124 | 36591 ft | 530 kts | 65° |
| 2026-05-07 12:50 | 51.20791 | -62.82878 | 36597 ft | 530 kts | 65° |
| 2026-05-07 12:50 | 51.24402 | -62.72623 | 36604 ft | 531 kts | 65° |
| 2026-05-07 12:51 | 51.28015 | -62.62326 | 36608 ft | 532 kts | 65° |
| 2026-05-07 12:51 | 51.31620 | -62.52006 | 36612 ft | 532 kts | 65° |
| 2026-05-07 12:52 | 51.35227 | -62.41641 | 36621 ft | 533 kts | 65° |
| 2026-05-07 12:52 | 51.38823 | -62.31267 | 36621 ft | 533 kts | 65° |
| 2026-05-07 12:53 | 51.42413 | -62.20865 | 36629 ft | 533 kts | 65° |
| 2026-05-07 12:53 | 51.45994 | -62.10443 | 36634 ft | 534 kts | 65° |
| 2026-05-07 12:54 | 51.49572 | -61.99986 | 36639 ft | 534 kts | 65° |
| 2026-05-07 12:54 | 51.53133 | -61.89539 | 36644 ft | 534 kts | 65° |
| 2026-05-07 12:55 | 51.56684 | -61.79074 | 36649 ft | 533 kts | 65° |
| 2026-05-07 12:55 | 51.60224 | -61.68596 | 36657 ft | 533 kts | 65° |
| 2026-05-07 12:56 | 51.63748 | -61.58128 | 36660 ft | 532 kts | 65° |
| 2026-05-07 12:56 | 51.67268 | -61.47627 | 36667 ft | 532 kts | 65° |
| 2026-05-07 12:57 | 51.70769 | -61.37138 | 36673 ft | 532 kts | 65° |
| 2026-05-07 12:57 | 51.74258 | -61.26636 | 36681 ft | 531 kts | 66° |
| 2026-05-07 12:58 | 51.77738 | -61.16120 | 36685 ft | 531 kts | 66° |
| 2026-05-07 12:58 | 51.81210 | -61.05582 | 36712 ft | 531 kts | 66° |
| 2026-05-07 12:59 | 51.84669 | -60.95041 | 36699 ft | 531 kts | 66° |
| 2026-05-07 12:59 | 51.88119 | -60.84482 | 36709 ft | 531 kts | 66° |
| 2026-05-07 13:00 | 51.91537 | -60.73973 | 36713 ft | 531 kts | 66° |
| 2026-05-07 13:00 | 51.94973 | -60.63365 | 36721 ft | 532 kts | 66° |
| 2026-05-07 13:01 | 51.98427 | -60.52655 | 36730 ft | 533 kts | 66° |
| 2026-05-07 13:01 | 52.01833 | -60.42051 | 36729 ft | 533 kts | 66° |
| 2026-05-07 13:02 | 52.05274 | -60.31291 | 36746 ft | 534 kts | 66° |
| 2026-05-07 13:02 | 52.08670 | -60.20621 | 36754 ft | 535 kts | 66° |
| 2026-05-07 13:03 | 52.12082 | -60.09862 | 36763 ft | 535 kts | 66° |
| 2026-05-07 13:03 | 52.15487 | -59.99076 | 36767 ft | 536 kts | 67° |
| 2026-05-07 13:04 | 52.18878 | -59.88281 | 36771 ft | 536 kts | 67° |
| 2026-05-07 13:04 | 52.22260 | -59.77468 | 36778 ft | 536 kts | 67° |
| 2026-05-07 13:05 | 52.25646 | -59.66594 | 36779 ft | 537 kts | 67° |
| 2026-05-07 13:05 | 52.29017 | -59.55719 | 36787 ft | 537 kts | 67° |
| 2026-05-07 13:06 | 52.32376 | -59.44835 | 36788 ft | 537 kts | 67° |
| 2026-05-07 13:06 | 52.35732 | -59.33916 | 36795 ft | 537 kts | 67° |
| 2026-05-07 13:07 | 52.39073 | -59.22992 | 36793 ft | 537 kts | 67° |
| 2026-05-07 13:07 | 52.42401 | -59.12063 | 36806 ft | 536 kts | 67° |
| 2026-05-07 13:08 | 52.45717 | -59.01122 | 36808 ft | 536 kts | 67° |
| 2026-05-07 13:08 | 52.49030 | -58.90140 | 36805 ft | 536 kts | 68° |
| 2026-05-07 13:09 | 52.52323 | -58.79177 | 36809 ft | 536 kts | 68° |
| 2026-05-07 13:09 | 52.55598 | -58.68226 | 36812 ft | 535 kts | 68° |
| 2026-05-07 13:10 | 52.58881 | -58.57193 | 36818 ft | 535 kts | 68° |
| 2026-05-07 13:10 | 52.62138 | -58.46199 | 36819 ft | 535 kts | 68° |
| 2026-05-07 13:11 | 52.65385 | -58.35185 | 36818 ft | 535 kts | 68° |
| 2026-05-07 13:11 | 52.68626 | -58.24141 | 36824 ft | 535 kts | 68° |
| 2026-05-07 13:12 | 52.71857 | -58.13080 | 36826 ft | 536 kts | 68° |
| 2026-05-07 13:12 | 52.75081 | -58.01994 | 36835 ft | 536 kts | 68° |
| 2026-05-07 13:13 | 52.78295 | -57.90886 | 36824 ft | 537 kts | 69° |
| 2026-05-07 13:13 | 52.81486 | -57.79809 | 36832 ft | 537 kts | 69° |
| 2026-05-07 13:14 | 52.84688 | -57.68638 | 36833 ft | 538 kts | 69° |
| 2026-05-07 13:14 | 52.87884 | -57.57437 | 36836 ft | 539 kts | 69° |
| 2026-05-07 13:15 | 52.91073 | -57.46204 | 36840 ft | 539 kts | 69° |
| 2026-05-07 13:15 | 52.94261 | -57.34926 | 36842 ft | 540 kts | 69° |
| 2026-05-07 13:16 | 52.97436 | -57.23639 | 36854 ft | 540 kts | 69° |
| 2026-05-07 13:16 | 53.00602 | -57.12328 | 36861 ft | 540 kts | 69° |
| 2026-05-07 13:17 | 53.03774 | -57.00939 | 36865 ft | 540 kts | 69° |
| 2026-05-07 13:17 | 53.06917 | -56.89597 | 36865 ft | 540 kts | 69° |
| 2026-05-07 13:18 | 53.10030 | -56.78312 | 36871 ft | 540 kts | 69° |
| 2026-05-07 13:18 | 53.13402 | -56.67106 | 36872 ft | 543 kts | 65° |
| 2026-05-07 13:19 | 53.16465 | -56.57866 | 36870 ft | 544 kts | 64° |
| 2026-05-07 13:19 | 53.20099 | -56.46807 | 36882 ft | 544 kts | 65° |
| 2026-05-07 13:20 | 53.23642 | -56.35744 | 36881 ft | 544 kts | 66° |
| 2026-05-07 13:20 | 53.27171 | -56.24569 | 36888 ft | 544 kts | 66° |
| 2026-05-07 13:21 | 53.30689 | -56.13363 | 36883 ft | 544 kts | 66° |
| 2026-05-07 13:21 | 53.34200 | -56.02144 | 36892 ft | 545 kts | 66° |
| 2026-05-07 13:22 | 53.37705 | -55.90895 | 36892 ft | 545 kts | 66° |
| 2026-05-07 13:22 | 53.41199 | -55.79630 | 36896 ft | 545 kts | 66° |
| 2026-05-07 13:23 | 53.44689 | -55.68324 | 36900 ft | 545 kts | 66° |
| 2026-05-07 13:23 | 53.48146 | -55.57073 | 36903 ft | 545 kts | 66° |
| 2026-05-07 13:24 | 53.51633 | -55.45671 | 36907 ft | 545 kts | 66° |
| 2026-05-07 13:24 | 53.55064 | -55.34399 | 36908 ft | 546 kts | 66° |
| 2026-05-07 13:25 | 53.58514 | -55.23011 | 36917 ft | 546 kts | 66° |
| 2026-05-07 13:25 | 53.61948 | -55.11620 | 36924 ft | 546 kts | 66° |
| 2026-05-07 13:26 | 53.65401 | -55.00112 | 36920 ft | 546 kts | 66° |
| 2026-05-07 13:26 | 53.68793 | -54.88751 | 36931 ft | 546 kts | 66° |
| 2026-05-07 13:27 | 53.72198 | -54.77290 | 36935 ft | 547 kts | 66° |
| 2026-05-07 13:27 | 53.75595 | -54.65807 | 36936 ft | 547 kts | 66° |
| 2026-05-07 13:28 | 53.78987 | -54.54284 | 36948 ft | 547 kts | 66° |
| 2026-05-07 13:28 | 53.82363 | -54.42758 | 36947 ft | 547 kts | 66° |
| 2026-05-07 13:29 | 53.85727 | -54.31213 | 36952 ft | 547 kts | 66° |
| 2026-05-07 13:29 | 53.89086 | -54.19626 | 36958 ft | 547 kts | 66° |
| 2026-05-07 13:30 | 53.92430 | -54.08040 | 36956 ft | 547 kts | 66° |
| 2026-05-07 13:30 | 53.95763 | -53.96437 | 36962 ft | 547 kts | 66° |
| 2026-05-07 13:31 | 53.99089 | -53.84796 | 36960 ft | 547 kts | 66° |
| 2026-05-07 13:31 | 54.02399 | -53.73157 | 36965 ft | 547 kts | 66° |
| 2026-05-07 13:32 | 54.05702 | -53.61479 | 36968 ft | 547 kts | 66° |
| 2026-05-07 13:32 | 54.08986 | -53.49810 | 36974 ft | 546 kts | 66° |
| 2026-05-07 13:33 | 54.12263 | -53.38112 | 36977 ft | 546 kts | 67° |
| 2026-05-07 13:33 | 54.15499 | -53.26501 | 36983 ft | 546 kts | 67° |
| 2026-05-07 13:34 | 54.20364 | -53.08933 | 36984 ft | 545 kts | 67° |
| 2026-05-07 13:35 | 54.23589 | -52.97213 | 36982 ft | 545 kts | 67° |
| 2026-05-07 13:35 | 54.26800 | -52.85480 | 36996 ft | 545 kts | 67° |
| 2026-05-07 13:36 | 54.30020 | -52.73656 | 36994 ft | 545 kts | 67° |
| 2026-05-07 13:36 | 54.33191 | -52.61956 | 36995 ft | 544 kts | 67° |
| 2026-05-07 13:37 | 54.36364 | -52.50185 | 36995 ft | 544 kts | 67° |
| 2026-05-07 13:37 | 54.39525 | -52.38400 | 36999 ft | 544 kts | 67° |
| 2026-05-07 13:38 | 54.42678 | -52.26583 | 37005 ft | 544 kts | 67° |
| 2026-05-07 13:38 | 54.45813 | -52.14769 | 37006 ft | 544 kts | 68° |
| 2026-05-07 13:39 | 54.48942 | -52.02918 | 37009 ft | 544 kts | 68° |
| 2026-05-07 13:39 | 54.52060 | -51.91049 | 37009 ft | 544 kts | 68° |
| 2026-05-07 13:40 | 54.55161 | -51.79184 | 37011 ft | 544 kts | 68° |
| 2026-05-07 13:40 | 54.58250 | -51.67300 | 37016 ft | 544 kts | 68° |
| 2026-05-07 13:41 | 54.61327 | -51.55396 | 37015 ft | 544 kts | 68° |
| 2026-05-07 13:41 | 54.64377 | -51.43533 | 37017 ft | 544 kts | 68° |
| 2026-05-07 13:42 | 54.67432 | -51.31591 | 37017 ft | 544 kts | 68° |
| 2026-05-07 13:42 | 54.70481 | -51.19612 | 37022 ft | 544 kts | 68° |
| 2026-05-07 13:43 | 54.73512 | -51.07632 | 37023 ft | 544 kts | 68° |
| 2026-05-07 13:43 | 54.76533 | -50.95633 | 37024 ft | 544 kts | 68° |
| 2026-05-07 13:44 | 54.79546 | -50.83594 | 37029 ft | 544 kts | 68° |
| 2026-05-07 13:44 | 54.82542 | -50.71559 | 37032 ft | 544 kts | 68° |
| 2026-05-07 13:45 | 54.85526 | -50.59508 | 37035 ft | 544 kts | 68° |
| 2026-05-07 13:45 | 54.88503 | -50.47421 | 37034 ft | 544 kts | 68° |
| 2026-05-07 13:46 | 54.91463 | -50.35337 | 37035 ft | 544 kts | 69° |
| 2026-05-07 13:46 | 54.94410 | -50.23236 | 37040 ft | 544 kts | 69° |
| 2026-05-07 13:47 | 54.97326 | -50.11198 | 37042 ft | 543 kts | 69° |
| 2026-05-07 13:47 | 55.00082 | -49.98957 | 37050 ft | 541 kts | 77° |
| 2026-05-07 13:48 | 55.02027 | -49.86294 | 37045 ft | 540 kts | 78° |
| 2026-05-07 13:48 | 55.03827 | -49.73584 | 37051 ft | 540 kts | 79° |
| 2026-05-07 13:49 | 55.05613 | -49.60774 | 37051 ft | 540 kts | 78° |
| 2026-05-07 13:49 | 55.07377 | -49.48116 | 37052 ft | 540 kts | 78° |
| 2026-05-07 13:50 | 55.09145 | -49.35385 | 37055 ft | 540 kts | 78° |
| 2026-05-07 13:50 | 55.10900 | -49.22638 | 37059 ft | 540 kts | 78° |
| 2026-05-07 13:51 | 55.12642 | -49.09878 | 37062 ft | 540 kts | 79° |
| 2026-05-07 13:51 | 55.14372 | -48.97101 | 37064 ft | 539 kts | 79° |
| 2026-05-07 13:52 | 55.16083 | -48.84351 | 37063 ft | 539 kts | 79° |
| 2026-05-07 13:52 | 55.17785 | -48.71558 | 37064 ft | 539 kts | 79° |
| 2026-05-07 13:53 | 55.19473 | -48.58759 | 37069 ft | 539 kts | 79° |
| 2026-05-07 13:53 | 55.21143 | -48.45980 | 37075 ft | 539 kts | 79° |
| 2026-05-07 13:54 | 55.22804 | -48.33154 | 37080 ft | 539 kts | 79° |
| 2026-05-07 13:54 | 55.24449 | -48.20347 | 37076 ft | 539 kts | 79° |
| 2026-05-07 13:55 | 55.26080 | -48.07530 | 37080 ft | 539 kts | 79° |
| 2026-05-07 13:55 | 55.27697 | -47.94702 | 37087 ft | 539 kts | 79° |
| 2026-05-07 13:56 | 55.29301 | -47.81858 | 37085 ft | 539 kts | 79° |
| 2026-05-07 13:56 | 55.30894 | -47.68996 | 37092 ft | 539 kts | 79° |
| 2026-05-07 13:57 | 55.32473 | -47.56119 | 37088 ft | 539 kts | 79° |
| 2026-05-07 13:57 | 55.34035 | -47.43266 | 37097 ft | 539 kts | 79° |
| 2026-05-07 13:58 | 55.35573 | -47.30486 | 37102 ft | 538 kts | 79° |
| 2026-05-07 13:58 | 55.37109 | -47.17600 | 37104 ft | 538 kts | 79° |
| 2026-05-07 13:59 | 55.38630 | -47.04723 | 37108 ft | 537 kts | 79° |
| 2026-05-07 13:59 | 55.40135 | -46.91849 | 37111 ft | 537 kts | 79° |
| 2026-05-07 14:00 | 55.41625 | -46.78979 | 37115 ft | 536 kts | 79° |
| 2026-05-07 14:00 | 55.43098 | -46.66132 | 37116 ft | 536 kts | 79° |
| 2026-05-07 14:01 | 55.44560 | -46.53251 | 37112 ft | 535 kts | 79° |
| 2026-05-07 14:01 | 55.46007 | -46.40378 | 37122 ft | 535 kts | 79° |
| 2026-05-07 14:02 | 55.47437 | -46.27518 | 37126 ft | 535 kts | 79° |
| 2026-05-07 14:02 | 55.48856 | -46.14642 | 37131 ft | 535 kts | 79° |
| 2026-05-07 14:03 | 55.50262 | -46.01741 | 37132 ft | 535 kts | 79° |
| 2026-05-07 14:03 | 55.51651 | -45.88864 | 37137 ft | 534 kts | 79° |
| 2026-05-07 14:04 | 55.52803 | -45.78078 | 37140 ft | 534 kts | 79° |
| 2026-05-07 14:04 | 55.54160 | -45.65258 | 37145 ft | 534 kts | 79° |
| 2026-05-07 14:05 | 55.55509 | -45.52369 | 37151 ft | 534 kts | 79° |
| 2026-05-07 14:05 | 55.56845 | -45.39472 | 37156 ft | 534 kts | 79° |
| 2026-05-07 14:06 | 55.58167 | -45.26563 | 37157 ft | 534 kts | 79° |
| 2026-05-07 14:06 | 55.59476 | -45.13636 | 37161 ft | 533 kts | 79° |
| 2026-05-07 14:07 | 55.60770 | -45.00736 | 37165 ft | 533 kts | 79° |
| 2026-05-07 14:07 | 55.62050 | -44.87818 | 37164 ft | 533 kts | 79° |
| 2026-05-07 14:08 | 55.63318 | -44.74877 | 37172 ft | 533 kts | 79° |
| 2026-05-07 14:08 | 55.64571 | -44.61950 | 37174 ft | 533 kts | 79° |
| 2026-05-07 14:09 | 55.65810 | -44.49003 | 37173 ft | 533 kts | 79° |
| 2026-05-07 14:09 | 55.67036 | -44.36049 | 37179 ft | 533 kts | 79° |
| 2026-05-07 14:10 | 55.68247 | -44.23102 | 37183 ft | 533 kts | 79° |
| 2026-05-07 14:10 | 55.69444 | -44.10147 | 37187 ft | 533 kts | 79° |
| 2026-05-07 14:11 | 55.70621 | -43.97258 | 37190 ft | 533 kts | 79° |
| 2026-05-07 14:11 | 55.71793 | -43.84274 | 37196 ft | 533 kts | 80° |
| 2026-05-07 14:12 | 55.72950 | -43.71294 | 37204 ft | 533 kts | 80° |
| 2026-05-07 14:12 | 55.74095 | -43.58281 | 37211 ft | 533 kts | 80° |
| 2026-05-07 14:13 | 55.75225 | -43.45271 | 37201 ft | 533 kts | 80° |
| 2026-05-07 14:13 | 55.76340 | -43.32276 | 37210 ft | 533 kts | 80° |
| 2026-05-07 14:14 | 55.77443 | -43.19247 | 37221 ft | 533 kts | 80° |
| 2026-05-07 14:14 | 55.78533 | -43.06194 | 37227 ft | 533 kts | 80° |
| 2026-05-07 14:15 | 55.79608 | -42.93162 | 37225 ft | 534 kts | 80° |
| 2026-05-07 14:15 | 55.80670 | -42.80109 | 37232 ft | 534 kts | 80° |
| 2026-05-07 14:16 | 55.81718 | -42.67048 | 37233 ft | 533 kts | 80° |
| 2026-05-07 14:16 | 55.82753 | -42.53974 | 37241 ft | 533 kts | 80° |
| 2026-05-07 14:17 | 55.83773 | -42.40911 | 37252 ft | 533 kts | 80° |
| 2026-05-07 14:17 | 55.84778 | -42.27844 | 37250 ft | 533 kts | 80° |
| 2026-05-07 14:18 | 55.85765 | -42.14841 | 37257 ft | 533 kts | 80° |
| 2026-05-07 14:18 | 55.86749 | -42.01685 | 37258 ft | 533 kts | 80° |
| 2026-05-07 14:19 | 55.87712 | -41.88615 | 37260 ft | 532 kts | 80° |
| 2026-05-07 14:19 | 55.88654 | -41.75618 | 37267 ft | 532 kts | 80° |
| 2026-05-07 14:20 | 55.89589 | -41.62547 | 37268 ft | 532 kts | 80° |
| 2026-05-07 14:20 | 55.90509 | -41.49473 | 37271 ft | 532 kts | 80° |
| 2026-05-07 14:21 | 55.91416 | -41.36383 | 37278 ft | 532 kts | 80° |
| 2026-05-07 14:21 | 55.92308 | -41.23303 | 37282 ft | 532 kts | 79° |
| 2026-05-07 14:22 | 55.93186 | -41.10215 | 37287 ft | 531 kts | 79° |
| 2026-05-07 14:22 | 55.94050 | -40.97133 | 37290 ft | 531 kts | 79° |
| 2026-05-07 14:23 | 55.94901 | -40.84032 | 37295 ft | 531 kts | 79° |
| 2026-05-07 14:23 | 55.95737 | -40.70945 | 37298 ft | 531 kts | 79° |
| 2026-05-07 14:24 | 55.96558 | -40.57853 | 37302 ft | 531 kts | 79° |
| 2026-05-07 14:24 | 55.97366 | -40.44754 | 37309 ft | 531 kts | 79° |
| 2026-05-07 14:25 | 55.98160 | -40.31640 | 37307 ft | 531 kts | 79° |
| 2026-05-07 14:25 | 55.98942 | -40.18508 | 37309 ft | 531 kts | 79° |
| 2026-05-07 14:26 | 55.99708 | -40.05397 | 37316 ft | 531 kts | 79° |
| 2026-05-07 14:26 | 56.01083 | -39.92533 | 37319 ft | 525 kts | 71° |
| 2026-05-07 14:27 | 56.02856 | -39.79871 | 37319 ft | 525 kts | 70° |
| 2026-05-07 14:27 | 56.04666 | -39.67230 | 37325 ft | 525 kts | 70° |
| 2026-05-07 14:28 | 56.06457 | -39.54562 | 37327 ft | 525 kts | 70° |
| 2026-05-07 14:28 | 56.08222 | -39.41888 | 37320 ft | 525 kts | 70° |
| 2026-05-07 14:29 | 56.09974 | -39.29172 | 37331 ft | 525 kts | 70° |
| 2026-05-07 14:29 | 56.11712 | -39.16460 | 37331 ft | 525 kts | 70° |
| 2026-05-07 14:30 | 56.13438 | -39.03723 | 37332 ft | 525 kts | 70° |
| 2026-05-07 14:30 | 56.15149 | -38.90993 | 37338 ft | 525 kts | 70° |
| 2026-05-07 14:31 | 56.16837 | -38.78325 | 37338 ft | 525 kts | 70° |
| 2026-05-07 14:31 | 56.18522 | -38.65577 | 37341 ft | 525 kts | 70° |
| 2026-05-07 14:32 | 56.20195 | -38.52806 | 37342 ft | 525 kts | 70° |
| 2026-05-07 14:32 | 56.21852 | -38.40039 | 37348 ft | 525 kts | 70° |
| 2026-05-07 14:33 | 56.23496 | -38.27264 | 37347 ft | 525 kts | 70° |
| 2026-05-07 14:33 | 56.25129 | -38.14462 | 37354 ft | 524 kts | 70° |
| 2026-05-07 14:34 | 56.26745 | -38.01681 | 37346 ft | 524 kts | 70° |
| 2026-05-07 14:34 | 56.28348 | -37.88893 | 37346 ft | 524 kts | 70° |
| 2026-05-07 14:35 | 56.29935 | -37.76111 | 37346 ft | 523 kts | 70° |
| 2026-05-07 14:35 | 56.31510 | -37.63308 | 37352 ft | 523 kts | 70° |
| 2026-05-07 14:36 | 56.33067 | -37.50527 | 37349 ft | 522 kts | 70° |
| 2026-05-07 14:36 | 56.34612 | -37.37736 | 37353 ft | 522 kts | 70° |
| 2026-05-07 14:37 | 56.36138 | -37.24980 | 37355 ft | 521 kts | 70° |
| 2026-05-07 14:37 | 56.38403 | -37.05823 | 37357 ft | 520 kts | 70° |
| 2026-05-07 14:38 | 56.39897 | -36.93037 | 37355 ft | 519 kts | 71° |
| 2026-05-07 14:38 | 56.41363 | -36.80373 | 37359 ft | 519 kts | 71° |
| 2026-05-07 14:39 | 56.42830 | -36.67571 | 37358 ft | 519 kts | 71° |
| 2026-05-07 14:39 | 56.44277 | -36.54813 | 37356 ft | 519 kts | 71° |
| 2026-05-07 14:40 | 56.45714 | -36.42029 | 37358 ft | 519 kts | 71° |
| 2026-05-07 14:40 | 56.47136 | -36.29250 | 37358 ft | 519 kts | 71° |
| 2026-05-07 14:41 | 56.48547 | -36.16441 | 37362 ft | 519 kts | 71° |
| 2026-05-07 14:41 | 56.49933 | -36.03727 | 37359 ft | 519 kts | 71° |
| 2026-05-07 14:42 | 56.51317 | -35.90909 | 37357 ft | 519 kts | 71° |
| 2026-05-07 14:42 | 56.52687 | -35.78082 | 37363 ft | 519 kts | 71° |
| 2026-05-07 14:43 | 56.54044 | -35.65245 | 37362 ft | 519 kts | 71° |
| 2026-05-07 14:43 | 56.55387 | -35.52410 | 37367 ft | 518 kts | 71° |
| 2026-05-07 14:44 | 56.56716 | -35.39565 | 37363 ft | 517 kts | 72° |
| 2026-05-07 14:44 | 56.58027 | -35.26761 | 37358 ft | 516 kts | 72° |
| 2026-05-07 14:45 | 56.59323 | -35.13974 | 37361 ft | 515 kts | 72° |
| 2026-05-07 14:45 | 56.60603 | -35.01197 | 37363 ft | 514 kts | 72° |
| 2026-05-07 14:46 | 56.61867 | -34.88441 | 37360 ft | 513 kts | 72° |
| 2026-05-07 14:46 | 56.63118 | -34.75690 | 37359 ft | 513 kts | 72° |
| 2026-05-07 14:47 | 56.64357 | -34.62912 | 37362 ft | 513 kts | 72° |
| 2026-05-07 14:47 | 56.65580 | -34.50147 | 37363 ft | 513 kts | 73° |
| 2026-05-07 14:48 | 56.66793 | -34.37352 | 37366 ft | 513 kts | 73° |
| 2026-05-07 14:48 | 56.67993 | -34.24554 | 37359 ft | 513 kts | 73° |
| 2026-05-07 14:49 | 56.68979 | -34.13922 | 37361 ft | 513 kts | 73° |
| 2026-05-07 14:49 | 56.70156 | -34.01092 | 37363 ft | 514 kts | 73° |
| 2026-05-07 14:50 | 56.71321 | -33.88237 | 37363 ft | 515 kts | 73° |
| 2026-05-07 14:50 | 56.72472 | -33.75384 | 37363 ft | 515 kts | 73° |
| 2026-05-07 14:51 | 56.73612 | -33.62491 | 37357 ft | 516 kts | 73° |
| 2026-05-07 14:51 | 56.74743 | -33.49554 | 37357 ft | 517 kts | 73° |
| 2026-05-07 14:52 | 56.75858 | -33.36622 | 37358 ft | 517 kts | 73° |
| 2026-05-07 14:52 | 56.76960 | -33.23681 | 37358 ft | 517 kts | 74° |
| 2026-05-07 14:53 | 56.78050 | -33.10720 | 37358 ft | 517 kts | 74° |
| 2026-05-07 14:53 | 56.79127 | -32.97742 | 37356 ft | 517 kts | 74° |
| 2026-05-07 14:54 | 56.80192 | -32.84748 | 37357 ft | 517 kts | 74° |
| 2026-05-07 14:54 | 56.81243 | -32.71771 | 37358 ft | 517 kts | 74° |
| 2026-05-07 14:55 | 56.82280 | -32.58782 | 37355 ft | 517 kts | 74° |
| 2026-05-07 14:55 | 56.83301 | -32.45807 | 37356 ft | 516 kts | 74° |
| 2026-05-07 14:56 | 56.84308 | -32.32832 | 37357 ft | 516 kts | 74° |
| 2026-05-07 14:56 | 56.85300 | -32.19856 | 37358 ft | 516 kts | 75° |
| 2026-05-07 14:57 | 56.86274 | -32.06947 | 37346 ft | 516 kts | 75° |
| 2026-05-07 14:57 | 56.87239 | -31.93970 | 37348 ft | 515 kts | 75° |
| 2026-05-07 14:58 | 56.88192 | -31.80975 | 37345 ft | 515 kts | 75° |
| 2026-05-07 14:58 | 56.89130 | -31.67999 | 37346 ft | 515 kts | 75° |
| 2026-05-07 14:59 | 56.90060 | -31.54926 | 37340 ft | 515 kts | 75° |
| 2026-05-07 14:59 | 56.90973 | -31.41912 | 37344 ft | 515 kts | 75° |
| 2026-05-07 15:00 | 56.91864 | -31.29004 | 37345 ft | 515 kts | 76° |
| 2026-05-07 15:00 | 56.92747 | -31.16007 | 37341 ft | 515 kts | 76° |
| 2026-05-07 15:01 | 56.93618 | -31.03002 | 37343 ft | 514 kts | 76° |
| 2026-05-07 15:01 | 56.94479 | -30.89907 | 37335 ft | 514 kts | 76° |
| 2026-05-07 15:02 | 56.95317 | -30.76971 | 37344 ft | 514 kts | 76° |
| 2026-05-07 15:02 | 56.96152 | -30.63862 | 37339 ft | 514 kts | 77° |
| 2026-05-07 15:03 | 56.96962 | -30.50924 | 37331 ft | 514 kts | 77° |
| 2026-05-07 15:03 | 56.97763 | -30.37907 | 37330 ft | 514 kts | 77° |
| 2026-05-07 15:04 | 56.98551 | -30.24894 | 37324 ft | 514 kts | 77° |
| 2026-05-07 15:04 | 56.99326 | -30.11856 | 37319 ft | 514 kts | 77° |
| 2026-05-07 15:05 | 57.00087 | -29.98835 | 37316 ft | 514 kts | 78° |
| 2026-05-07 15:05 | 57.00682 | -29.85750 | 37319 ft | 516 kts | 80° |
| 2026-05-07 15:06 | 57.01125 | -29.72624 | 37315 ft | 516 kts | 81° |
| 2026-05-07 15:06 | 57.01574 | -29.59477 | 37313 ft | 515 kts | 81° |
| 2026-05-07 15:07 | 57.02041 | -29.46361 | 37311 ft | 515 kts | 81° |
| 2026-05-07 15:07 | 57.02505 | -29.33223 | 37306 ft | 515 kts | 81° |
| 2026-05-07 15:08 | 57.02954 | -29.20095 | 37308 ft | 515 kts | 81° |
| 2026-05-07 15:08 | 57.03388 | -29.06978 | 37302 ft | 515 kts | 81° |
| 2026-05-07 15:09 | 57.03805 | -28.93917 | 37300 ft | 515 kts | 81° |
| 2026-05-07 15:09 | 57.04211 | -28.80786 | 37289 ft | 515 kts | 82° |
| 2026-05-07 15:10 | 57.04603 | -28.67639 | 37288 ft | 515 kts | 82° |
| 2026-05-07 15:10 | 57.04982 | -28.54500 | 37296 ft | 515 kts | 82° |
| 2026-05-07 15:11 | 57.05346 | -28.41352 | 37286 ft | 515 kts | 82° |
| 2026-05-07 15:11 | 57.05698 | -28.28208 | 37284 ft | 515 kts | 82° |
| 2026-05-07 15:12 | 57.06035 | -28.15045 | 37287 ft | 515 kts | 82° |
| 2026-05-07 15:12 | 57.06359 | -28.01887 | 37279 ft | 515 kts | 83° |
| 2026-05-07 15:13 | 57.06668 | -27.88732 | 37282 ft | 516 kts | 83° |
| 2026-05-07 15:13 | 57.06964 | -27.75554 | 37277 ft | 515 kts | 83° |
| 2026-05-07 15:14 | 57.07247 | -27.62398 | 37273 ft | 515 kts | 83° |
| 2026-05-07 15:14 | 57.07515 | -27.49242 | 37271 ft | 515 kts | 83° |
| 2026-05-07 15:15 | 57.07769 | -27.36064 | 37266 ft | 515 kts | 83° |
| 2026-05-07 15:15 | 57.08009 | -27.22909 | 37266 ft | 515 kts | 84° |
| 2026-05-07 15:16 | 57.08236 | -27.09746 | 37261 ft | 515 kts | 84° |
| 2026-05-07 15:16 | 57.08449 | -26.96569 | 37259 ft | 515 kts | 84° |
| 2026-05-07 15:17 | 57.08649 | -26.83415 | 37256 ft | 515 kts | 84° |
| 2026-05-07 15:17 | 57.08835 | -26.70264 | 37254 ft | 515 kts | 84° |
| 2026-05-07 15:18 | 57.09007 | -26.57091 | 37249 ft | 515 kts | 84° |
| 2026-05-07 15:18 | 57.09164 | -26.43943 | 37245 ft | 515 kts | 85° |
| 2026-05-07 15:19 | 57.09307 | -26.30796 | 37242 ft | 514 kts | 85° |
| 2026-05-07 15:19 | 57.09436 | -26.17717 | 37239 ft | 514 kts | 85° |
| 2026-05-07 15:20 | 57.09553 | -26.04575 | 37241 ft | 514 kts | 85° |
| 2026-05-07 15:20 | 57.09655 | -25.91427 | 37225 ft | 514 kts | 85° |
| 2026-05-07 15:21 | 57.09744 | -25.78288 | 37229 ft | 514 kts | 85° |
| 2026-05-07 15:21 | 57.09819 | -25.65129 | 37229 ft | 514 kts | 86° |
| 2026-05-07 15:22 | 57.09881 | -25.51992 | 37224 ft | 514 kts | 86° |
| 2026-05-07 15:22 | 57.09929 | -25.38857 | 37227 ft | 514 kts | 86° |
| 2026-05-07 15:23 | 57.09962 | -25.25723 | 37220 ft | 514 kts | 86° |
| 2026-05-07 15:23 | 57.09981 | -25.12566 | 37212 ft | 514 kts | 86° |
| 2026-05-07 15:24 | 57.09987 | -24.99411 | 37214 ft | 514 kts | 87° |
| 2026-05-07 15:24 | 57.09980 | -24.86270 | 37208 ft | 514 kts | 87° |
| 2026-05-07 15:25 | 57.09959 | -24.73119 | 37203 ft | 514 kts | 87° |
| 2026-05-07 15:25 | 57.09924 | -24.59989 | 37202 ft | 514 kts | 87° |
| 2026-05-07 15:26 | 57.09876 | -24.46924 | 37193 ft | 514 kts | 88° |
| 2026-05-07 15:26 | 57.09814 | -24.33793 | 37195 ft | 514 kts | 88° |
| 2026-05-07 15:27 | 57.09738 | -24.20652 | 37193 ft | 514 kts | 88° |
| 2026-05-07 15:27 | 57.09648 | -24.07513 | 37190 ft | 514 kts | 88° |
| 2026-05-07 15:28 | 57.09544 | -23.94385 | 37188 ft | 514 kts | 88° |
| 2026-05-07 15:28 | 57.09426 | -23.81243 | 37183 ft | 514 kts | 88° |
| 2026-05-07 15:29 | 57.09295 | -23.68085 | 37181 ft | 514 kts | 89° |
| 2026-05-07 15:29 | 57.09150 | -23.54947 | 37179 ft | 514 kts | 89° |
| 2026-05-07 15:30 | 57.08991 | -23.41809 | 37178 ft | 514 kts | 89° |
| 2026-05-07 15:30 | 57.08819 | -23.28674 | 37176 ft | 514 kts | 89° |
| 2026-05-07 15:31 | 57.08633 | -23.15518 | 37172 ft | 514 kts | 89° |
| 2026-05-07 15:31 | 57.08433 | -23.02384 | 37163 ft | 514 kts | 89° |
| 2026-05-07 15:32 | 57.08219 | -22.89229 | 37163 ft | 514 kts | 90° |
| 2026-05-07 15:32 | 57.08031 | -22.78324 | 37160 ft | 514 kts | 90° |
| 2026-05-07 15:33 | 57.07750 | -22.62962 | 37158 ft | 514 kts | 90° |
| 2026-05-07 15:33 | 57.07539 | -22.52034 | 37154 ft | 514 kts | 90° |
| 2026-05-07 15:34 | 57.07273 | -22.38900 | 37157 ft | 514 kts | 90° |
| 2026-05-07 15:34 | 57.06993 | -22.25757 | 37150 ft | 515 kts | 90° |
| 2026-05-07 15:35 | 57.06699 | -22.12619 | 37146 ft | 515 kts | 90° |
| 2026-05-07 15:35 | 57.06391 | -21.99477 | 37139 ft | 515 kts | 91° |
| 2026-05-07 15:36 | 57.06068 | -21.86314 | 37136 ft | 515 kts | 91° |
| 2026-05-07 15:36 | 57.05732 | -21.73174 | 37131 ft | 515 kts | 91° |
| 2026-05-07 15:37 | 57.05382 | -21.60012 | 37132 ft | 515 kts | 91° |
| 2026-05-07 15:37 | 57.05019 | -21.46871 | 37130 ft | 515 kts | 91° |
| 2026-05-07 15:38 | 57.04642 | -21.33708 | 37124 ft | 515 kts | 91° |
| 2026-05-07 15:38 | 57.04251 | -21.20565 | 37118 ft | 516 kts | 92° |
| 2026-05-07 15:39 | 57.03846 | -21.07404 | 37112 ft | 516 kts | 92° |
| 2026-05-07 15:39 | 57.03426 | -20.94234 | 37109 ft | 516 kts | 92° |
| 2026-05-07 15:40 | 57.02996 | -20.81169 | 37111 ft | 516 kts | 92° |
| 2026-05-07 15:40 | 57.02550 | -20.68013 | 37104 ft | 517 kts | 92° |
| 2026-05-07 15:41 | 57.02088 | -20.54832 | 37098 ft | 517 kts | 92° |
| 2026-05-07 15:41 | 57.01613 | -20.41671 | 37092 ft | 517 kts | 93° |
| 2026-05-07 15:42 | 57.01124 | -20.28499 | 37090 ft | 518 kts | 93° |
| 2026-05-07 15:42 | 57.00621 | -20.15314 | 37081 ft | 518 kts | 93° |
| 2026-05-07 15:43 | 57.00012 | -20.02124 | 37094 ft | 519 kts | 98° |
| 2026-05-07 15:43 | 56.98185 | -19.89329 | 37070 ft | 519 kts | 107° |
| 2026-05-07 15:44 | 56.95967 | -19.76726 | 37065 ft | 520 kts | 108° |
| 2026-05-07 15:44 | 56.93693 | -19.64156 | 37070 ft | 520 kts | 108° |
| 2026-05-07 15:45 | 56.91420 | -19.51567 | 37076 ft | 520 kts | 108° |
| 2026-05-07 15:45 | 56.89152 | -19.39006 | 37073 ft | 520 kts | 108° |
| 2026-05-07 15:46 | 56.85729 | -19.20171 | 37050 ft | 521 kts | 109° |
| 2026-05-07 15:47 | 56.83430 | -19.07636 | 37045 ft | 521 kts | 109° |
| 2026-05-07 15:47 | 56.81117 | -18.95111 | 37055 ft | 521 kts | 109° |
| 2026-05-07 15:48 | 56.78792 | -18.82603 | 37051 ft | 521 kts | 109° |
| 2026-05-07 15:48 | 56.76449 | -18.70088 | 37050 ft | 521 kts | 109° |
| 2026-05-07 15:49 | 56.74098 | -18.57610 | 37040 ft | 521 kts | 109° |
| 2026-05-07 15:49 | 56.71748 | -18.45222 | 37035 ft | 521 kts | 110° |
| 2026-05-07 15:50 | 56.69368 | -18.32748 | 37036 ft | 521 kts | 110° |
| 2026-05-07 15:50 | 56.66979 | -18.20309 | 37027 ft | 521 kts | 110° |
| 2026-05-07 15:51 | 56.64577 | -18.07883 | 37025 ft | 521 kts | 110° |
| 2026-05-07 15:51 | 56.62162 | -17.95463 | 37018 ft | 521 kts | 110° |
| 2026-05-07 15:52 | 56.59735 | -17.83068 | 37008 ft | 521 kts | 110° |
| 2026-05-07 15:52 | 56.57296 | -17.70689 | 37010 ft | 521 kts | 111° |
| 2026-05-07 15:53 | 56.54840 | -17.58303 | 37005 ft | 521 kts | 111° |
| 2026-05-07 15:53 | 56.52374 | -17.45955 | 36997 ft | 521 kts | 111° |
| 2026-05-07 15:54 | 56.49893 | -17.33603 | 36992 ft | 521 kts | 111° |
| 2026-05-07 15:54 | 56.47405 | -17.21289 | 36993 ft | 521 kts | 111° |
| 2026-05-07 15:55 | 56.44906 | -17.08994 | 36990 ft | 521 kts | 111° |
| 2026-05-07 15:55 | 56.42391 | -16.96700 | 36986 ft | 521 kts | 111° |
| 2026-05-07 15:56 | 56.39867 | -16.84440 | 36981 ft | 521 kts | 112° |
| 2026-05-07 15:56 | 56.37334 | -16.72204 | 36980 ft | 521 kts | 112° |
| 2026-05-07 15:57 | 56.34788 | -16.59986 | 36972 ft | 521 kts | 112° |
| 2026-05-07 15:57 | 56.32227 | -16.47766 | 36970 ft | 520 kts | 112° |
| 2026-05-07 15:58 | 56.29662 | -16.35605 | 36968 ft | 520 kts | 112° |
| 2026-05-07 15:58 | 56.27078 | -16.23421 | 36963 ft | 520 kts | 112° |
| 2026-05-07 15:59 | 56.24487 | -16.11276 | 36956 ft | 520 kts | 113° |
| 2026-05-07 15:59 | 56.21884 | -15.99155 | 36957 ft | 520 kts | 113° |
| 2026-05-07 16:00 | 56.19267 | -15.87038 | 36951 ft | 520 kts | 113° |
| 2026-05-07 16:00 | 56.16647 | -15.74975 | 36948 ft | 520 kts | 113° |
| 2026-05-07 16:01 | 56.14023 | -15.62970 | 36945 ft | 519 kts | 114° |
| 2026-05-07 16:01 | 56.11379 | -15.50936 | 36944 ft | 519 kts | 114° |
| 2026-05-07 16:02 | 56.08704 | -15.38837 | 36942 ft | 519 kts | 114° |
| 2026-05-07 16:02 | 56.06050 | -15.26896 | 36937 ft | 519 kts | 114° |
| 2026-05-07 16:03 | 56.03372 | -15.14922 | 36933 ft | 518 kts | 114° |
| 2026-05-07 16:03 | 56.00859 | -15.02854 | 36932 ft | 520 kts | 107° |
| 2026-05-07 16:04 | 56.00012 | -14.89993 | 36924 ft | 523 kts | 92° |
| 2026-05-07 16:04 | 56.00003 | -14.76988 | 36919 ft | 524 kts | 91° |
| 2026-05-07 16:05 | 56.00081 | -14.63972 | 36916 ft | 524 kts | 91° |
| 2026-05-07 16:05 | 56.00120 | -14.50963 | 36913 ft | 524 kts | 91° |
| 2026-05-07 16:06 | 56.00120 | -14.37942 | 36905 ft | 523 kts | 91° |
| 2026-05-07 16:06 | 56.00097 | -14.24953 | 36906 ft | 523 kts | 92° |
| 2026-05-07 16:07 | 56.00062 | -14.11948 | 36899 ft | 523 kts | 92° |
| 2026-05-07 16:07 | 55.99452 | -13.99083 | 36895 ft | 518 kts | 105° |
| 2026-05-07 16:08 | 55.97133 | -13.87055 | 36890 ft | 514 kts | 114° |
| 2026-05-07 16:08 | 55.94416 | -13.75256 | 36890 ft | 514 kts | 115° |
| 2026-05-07 16:09 | 55.91643 | -13.63469 | 36886 ft | 514 kts | 115° |
| 2026-05-07 16:09 | 55.88893 | -13.51723 | 36878 ft | 514 kts | 115° |
| 2026-05-07 16:10 | 55.86148 | -13.39985 | 36883 ft | 514 kts | 115° |
| 2026-05-07 16:10 | 55.83397 | -13.28261 | 36879 ft | 513 kts | 115° |
| 2026-05-07 16:11 | 55.80630 | -13.16537 | 36877 ft | 514 kts | 115° |
| 2026-05-07 16:11 | 55.77854 | -13.04846 | 36873 ft | 514 kts | 116° |
| 2026-05-07 16:12 | 55.75064 | -12.93165 | 36875 ft | 514 kts | 116° |
| 2026-05-07 16:12 | 55.72261 | -12.81487 | 36871 ft | 514 kts | 116° |
| 2026-05-07 16:13 | 55.69451 | -12.69843 | 36870 ft | 514 kts | 116° |
| 2026-05-07 16:13 | 55.66629 | -12.58214 | 36867 ft | 514 kts | 116° |
| 2026-05-07 16:14 | 55.63811 | -12.46660 | 36868 ft | 514 kts | 116° |
| 2026-05-07 16:14 | 55.60971 | -12.35072 | 36869 ft | 513 kts | 116° |
| 2026-05-07 16:15 | 55.58107 | -12.23449 | 36870 ft | 512 kts | 116° |
| 2026-05-07 16:15 | 55.55270 | -12.12000 | 36868 ft | 511 kts | 117° |
| 2026-05-07 16:16 | 55.52413 | -12.00533 | 36867 ft | 510 kts | 117° |
| 2026-05-07 16:16 | 55.49550 | -11.89104 | 36871 ft | 509 kts | 117° |
| 2026-05-07 16:17 | 55.46682 | -11.77712 | 36869 ft | 508 kts | 117° |
| 2026-05-07 16:17 | 55.43804 | -11.66333 | 36866 ft | 508 kts | 117° |
| 2026-05-07 16:18 | 55.40923 | -11.55003 | 36857 ft | 507 kts | 117° |
| 2026-05-07 16:18 | 55.38520 | -11.45597 | 36871 ft | 507 kts | 117° |
| 2026-05-07 16:19 | 55.35622 | -11.34306 | 36871 ft | 506 kts | 117° |
| 2026-05-07 16:19 | 55.32718 | -11.23051 | 36873 ft | 506 kts | 117° |
| 2026-05-07 16:20 | 55.29801 | -11.11800 | 36866 ft | 506 kts | 117° |
| 2026-05-07 16:20 | 55.26879 | -11.00588 | 36875 ft | 505 kts | 117° |
| 2026-05-07 16:21 | 55.23945 | -10.89384 | 36873 ft | 505 kts | 117° |
| 2026-05-07 16:21 | 55.21005 | -10.78212 | 36879 ft | 505 kts | 117° |
| 2026-05-07 16:22 | 55.18059 | -10.67073 | 36878 ft | 505 kts | 117° |
| 2026-05-07 16:22 | 55.15098 | -10.55934 | 36880 ft | 505 kts | 117° |
| 2026-05-07 16:23 | 55.12130 | -10.44822 | 36879 ft | 504 kts | 117° |
| 2026-05-07 16:23 | 55.09153 | -10.33732 | 36882 ft | 504 kts | 117° |
| 2026-05-07 16:24 | 55.06159 | -10.22628 | 36886 ft | 504 kts | 117° |
| 2026-05-07 16:24 | 55.03157 | -10.11552 | 36889 ft | 504 kts | 117° |
| 2026-05-07 16:25 | 55.00150 | -10.00511 | 36892 ft | 505 kts | 117° |
| 2026-05-07 16:25 | 54.96883 | -9.89716 | 36896 ft | 503 kts | 123° |
| 2026-05-07 16:26 | 54.93262 | -9.79320 | 36894 ft | 503 kts | 123° |
| 2026-05-07 16:26 | 54.89671 | -9.68963 | 36899 ft | 503 kts | 123° |
| 2026-05-07 16:27 | 54.86092 | -9.58428 | 36896 ft | 503 kts | 122° |
| 2026-05-07 16:27 | 54.82553 | -9.47947 | 36898 ft | 504 kts | 122° |
| 2026-05-07 16:28 | 54.79006 | -9.37480 | 36900 ft | 504 kts | 122° |
| 2026-05-07 16:28 | 54.75441 | -9.27019 | 36898 ft | 504 kts | 122° |
| 2026-05-07 16:29 | 54.71865 | -9.16578 | 36899 ft | 504 kts | 122° |
| 2026-05-07 16:29 | 54.68286 | -9.06171 | 36903 ft | 504 kts | 122° |
| 2026-05-07 16:30 | 54.64715 | -8.95834 | 36899 ft | 504 kts | 122° |
| 2026-05-07 16:30 | 54.61112 | -8.85443 | 36903 ft | 504 kts | 122° |
| 2026-05-07 16:31 | 54.57479 | -8.75014 | 36906 ft | 504 kts | 122° |
| 2026-05-07 16:31 | 54.53884 | -8.64738 | 36906 ft | 504 kts | 122° |
| 2026-05-07 16:32 | 54.50232 | -8.54341 | 36903 ft | 504 kts | 122° |
| 2026-05-07 16:32 | 54.46618 | -8.44091 | 36900 ft | 504 kts | 122° |
| 2026-05-07 16:33 | 54.43046 | -8.33627 | 36899 ft | 505 kts | 119° |
| 2026-05-07 16:33 | 54.39905 | -8.22841 | 36913 ft | 505 kts | 117° |
| 2026-05-07 16:34 | 54.36804 | -8.12043 | 36903 ft | 505 kts | 117° |
| 2026-05-07 16:34 | 54.33626 | -8.01320 | 36911 ft | 504 kts | 118° |
| 2026-05-07 16:35 | 54.30406 | -7.90660 | 36904 ft | 504 kts | 118° |
| 2026-05-07 16:35 | 54.27169 | -7.80020 | 36904 ft | 503 kts | 118° |
| 2026-05-07 16:36 | 54.23931 | -7.69413 | 36906 ft | 503 kts | 118° |
| 2026-05-07 16:36 | 54.20686 | -7.58819 | 36908 ft | 503 kts | 118° |
| 2026-05-07 16:37 | 54.17442 | -7.48272 | 36904 ft | 502 kts | 118° |
| 2026-05-07 16:37 | 54.14175 | -7.37698 | 36904 ft | 502 kts | 118° |
| 2026-05-07 16:38 | 54.10907 | -7.27173 | 36904 ft | 502 kts | 118° |
| 2026-05-07 16:38 | 54.07635 | -7.16675 | 36908 ft | 501 kts | 118° |
| 2026-05-07 16:39 | 54.04355 | -7.06198 | 36913 ft | 501 kts | 118° |
| 2026-05-07 16:39 | 54.01065 | -6.95736 | 36913 ft | 501 kts | 118° |
| 2026-05-07 16:40 | 53.97773 | -6.85312 | 36912 ft | 501 kts | 118° |
| 2026-05-07 16:40 | 53.94472 | -6.74904 | 36916 ft | 500 kts | 118° |
| 2026-05-07 16:41 | 53.91164 | -6.64522 | 36921 ft | 500 kts | 118° |
| 2026-05-07 16:41 | 53.87853 | -6.54169 | 36922 ft | 500 kts | 118° |
| 2026-05-07 16:42 | 53.84518 | -6.43791 | 36928 ft | 500 kts | 118° |
| 2026-05-07 16:42 | 53.81181 | -6.33447 | 36934 ft | 501 kts | 118° |
| 2026-05-07 16:43 | 53.77830 | -6.23107 | 36931 ft | 500 kts | 118° |
| 2026-05-07 16:43 | 53.74501 | -6.12879 | 36934 ft | 500 kts | 119° |
| 2026-05-07 16:44 | 53.71143 | -6.02603 | 36937 ft | 500 kts | 119° |
| 2026-05-07 16:44 | 53.67753 | -5.92271 | 36943 ft | 500 kts | 119° |
| 2026-05-07 16:45 | 53.64376 | -5.82026 | 36947 ft | 500 kts | 119° |
| 2026-05-07 16:45 | 53.60985 | -5.71780 | 36949 ft | 500 kts | 119° |
| 2026-05-07 16:46 | 53.57612 | -5.61628 | 36957 ft | 500 kts | 119° |
| 2026-05-07 16:46 | 53.54592 | -5.51043 | 36964 ft | 499 kts | 107° |
| 2026-05-07 16:47 | 53.53435 | -5.39586 | 36958 ft | 497 kts | 93° |
| 2026-05-07 16:47 | 53.53114 | -5.27977 | 36971 ft | 497 kts | 91° |
| 2026-05-07 16:48 | 53.52869 | -5.16367 | 36976 ft | 498 kts | 91° |
| 2026-05-07 16:48 | 53.52567 | -5.04749 | 36971 ft | 498 kts | 92° |
| 2026-05-07 16:49 | 53.52186 | -4.93125 | 36980 ft | 498 kts | 92° |
| 2026-05-07 16:49 | 53.51793 | -4.81516 | 36982 ft | 498 kts | 92° |
| 2026-05-07 16:50 | 53.51404 | -4.69951 | 36984 ft | 498 kts | 92° |
| 2026-05-07 16:50 | 53.50999 | -4.58292 | 36985 ft | 498 kts | 92° |
| 2026-05-07 16:51 | 53.50587 | -4.46684 | 36987 ft | 498 kts | 92° |
| 2026-05-07 16:51 | 53.50164 | -4.35067 | 36987 ft | 498 kts | 93° |
| 2026-05-07 16:52 | 53.49729 | -4.23452 | 36985 ft | 499 kts | 93° |
| 2026-05-07 16:52 | 53.49283 | -4.11809 | 36982 ft | 499 kts | 93° |
| 2026-05-07 16:53 | 53.48797 | -4.00198 | 36977 ft | 499 kts | 96° |
| 2026-05-07 16:53 | 53.47186 | -3.88871 | 36982 ft | 500 kts | 108° |
| 2026-05-07 16:54 | 53.44940 | -3.77792 | 36979 ft | 501 kts | 109° |
| 2026-05-07 16:54 | 53.42613 | -3.66776 | 36980 ft | 501 kts | 109° |
| 2026-05-07 16:55 | 53.39958 | -3.55991 | 36983 ft | 501 kts | 115° |
| 2026-05-07 16:55 | 53.37469 | -3.47220 | 36981 ft | 501 kts | 116° |
| 2026-05-07 16:56 | 53.34424 | -3.36715 | 36923 ft | 501 kts | 116° |
| 2026-05-07 16:56 | 53.32906 | -3.31484 | 36687 ft | 500 kts | 116° |
| 2026-05-07 16:56 | 53.29836 | -3.20951 | 36181 ft | 501 kts | 116° |
| 2026-05-07 16:57 | 53.28317 | -3.15750 | 35931 ft | 502 kts | 116° |
| 2026-05-07 16:57 | 53.26771 | -3.10461 | 35682 ft | 502 kts | 116° |
| 2026-05-07 16:57 | 53.25240 | -3.05232 | 35432 ft | 501 kts | 116° |
| 2026-05-07 16:57 | 53.23704 | -2.99997 | 35179 ft | 501 kts | 116° |
| 2026-05-07 16:58 | 53.22173 | -2.94788 | 34950 ft | 501 kts | 116° |
| 2026-05-07 16:58 | 53.20632 | -2.89557 | 34715 ft | 501 kts | 116° |
| 2026-05-07 16:58 | 53.19091 | -2.84340 | 34473 ft | 501 kts | 116° |
| 2026-05-07 16:58 | 53.17551 | -2.79136 | 34232 ft | 501 kts | 116° |
| 2026-05-07 16:59 | 53.16005 | -2.73923 | 34001 ft | 501 kts | 116° |
| 2026-05-07 16:59 | 53.14471 | -2.68760 | 33728 ft | 501 kts | 116° |
| 2026-05-07 16:59 | 53.12920 | -2.63550 | 33467 ft | 502 kts | 116° |
| 2026-05-07 16:59 | 53.11364 | -2.58336 | 33188 ft | 502 kts | 116° |
| 2026-05-07 17:00 | 53.09803 | -2.53115 | 32926 ft | 503 kts | 116° |
| 2026-05-07 17:00 | 53.08260 | -2.47970 | 32651 ft | 504 kts | 116° |
| 2026-05-07 17:00 | 53.06673 | -2.42688 | 32375 ft | 505 kts | 116° |
| 2026-05-07 17:00 | 53.05100 | -2.37462 | 32137 ft | 505 kts | 116° |
| 2026-05-07 17:01 | 53.03323 | -2.32410 | 31867 ft | 506 kts | 127° |
| 2026-05-07 17:01 | 53.00912 | -2.28197 | 31602 ft | 504 kts | 142° |
| 2026-05-07 17:01 | 52.98014 | -2.24919 | 31347 ft | 503 kts | 150° |
| 2026-05-07 17:01 | 52.95027 | -2.21888 | 31094 ft | 503 kts | 150° |
| 2026-05-07 17:02 | 52.92057 | -2.18845 | 30836 ft | 504 kts | 149° |
| 2026-05-07 17:02 | 52.89105 | -2.15794 | 30577 ft | 504 kts | 149° |
| 2026-05-07 17:02 | 52.86105 | -2.12682 | 30334 ft | 505 kts | 149° |
| 2026-05-07 17:02 | 52.83128 | -2.09589 | 30099 ft | 505 kts | 149° |
| 2026-05-07 17:03 | 52.80116 | -2.06461 | 29802 ft | 505 kts | 149° |
| 2026-05-07 17:03 | 52.77143 | -2.03375 | 29508 ft | 503 kts | 149° |
| 2026-05-07 17:03 | 52.74187 | -2.00311 | 29226 ft | 501 kts | 149° |
| 2026-05-07 17:03 | 52.71310 | -1.97331 | 28942 ft | 499 kts | 149° |
| 2026-05-07 17:04 | 52.68311 | -1.94231 | 28649 ft | 497 kts | 150° |
| 2026-05-07 17:04 | 52.65383 | -1.91208 | 28371 ft | 495 kts | 150° |
| 2026-05-07 17:04 | 52.62517 | -1.88254 | 28102 ft | 493 kts | 150° |
| 2026-05-07 17:04 | 52.59569 | -1.85220 | 27828 ft | 491 kts | 150° |
| 2026-05-07 17:05 | 52.56705 | -1.82277 | 27557 ft | 489 kts | 150° |
| 2026-05-07 17:05 | 52.53835 | -1.79333 | 27126 ft | 484 kts | 150° |
| 2026-05-07 17:05 | 52.51015 | -1.76444 | 26554 ft | 479 kts | 150° |
| 2026-05-07 17:05 | 52.48219 | -1.73584 | 25937 ft | 475 kts | 149° |
| 2026-05-07 17:06 | 52.45420 | -1.70725 | 25331 ft | 471 kts | 149° |
| 2026-05-07 17:06 | 52.42651 | -1.67902 | 24725 ft | 467 kts | 149° |
| 2026-05-07 17:06 | 52.39898 | -1.65100 | 24124 ft | 464 kts | 149° |
| 2026-05-07 17:06 | 52.37167 | -1.62323 | 23507 ft | 461 kts | 149° |
| 2026-05-07 17:07 | 52.34460 | -1.59574 | 22837 ft | 456 kts | 149° |
| 2026-05-07 17:07 | 52.31777 | -1.56854 | 22270 ft | 451 kts | 149° |
| 2026-05-07 17:07 | 52.29127 | -1.54171 | 21659 ft | 446 kts | 149° |
| 2026-05-07 17:07 | 52.26527 | -1.51543 | 21089 ft | 442 kts | 149° |
| 2026-05-07 17:08 | 52.23933 | -1.48925 | 20501 ft | 438 kts | 149° |
| 2026-05-07 17:08 | 52.21368 | -1.46158 | 19909 ft | 435 kts | 143° |
| 2026-05-07 17:08 | 52.19080 | -1.43075 | 19509 ft | 432 kts | 140° |
| 2026-05-07 17:08 | 52.16796 | -1.39864 | 19086 ft | 434 kts | 140° |
| 2026-05-07 17:09 | 52.14502 | -1.36647 | 18645 ft | 433 kts | 140° |
| 2026-05-07 17:09 | 52.12222 | -1.33461 | 18189 ft | 430 kts | 140° |
| 2026-05-07 17:09 | 52.09965 | -1.30314 | 17729 ft | 427 kts | 140° |
| 2026-05-07 17:09 | 52.07711 | -1.27179 | 17289 ft | 424 kts | 140° |
| 2026-05-07 17:10 | 52.05476 | -1.24076 | 16866 ft | 422 kts | 140° |
| 2026-05-07 17:10 | 52.03255 | -1.20997 | 16425 ft | 419 kts | 140° |
| 2026-05-07 17:10 | 52.01036 | -1.17925 | 15976 ft | 417 kts | 140° |
| 2026-05-07 17:10 | 51.98835 | -1.14882 | 15552 ft | 414 kts | 140° |
| 2026-05-07 17:11 | 51.96641 | -1.11852 | 15178 ft | 410 kts | 140° |
| 2026-05-07 17:11 | 51.94503 | -1.08900 | 14771 ft | 402 kts | 140° |
| 2026-05-07 17:11 | 51.92381 | -1.05974 | 14151 ft | 399 kts | 140° |
| 2026-05-07 17:11 | 51.90270 | -1.03073 | 13577 ft | 397 kts | 140° |
| 2026-05-07 17:12 | 51.88179 | -1.00203 | 13036 ft | 393 kts | 140° |
| 2026-05-07 17:12 | 51.86090 | -0.97331 | 12471 ft | 390 kts | 139° |
| 2026-05-07 17:12 | 51.84366 | -0.94011 | 11999 ft | 387 kts | 119° |
| 2026-05-07 17:12 | 51.83199 | -0.90102 | 11503 ft | 386 kts | 113° |
| 2026-05-07 17:13 | 51.82100 | -0.86172 | 11077 ft | 380 kts | 114° |
| 2026-05-07 17:13 | 51.81006 | -0.82429 | 10646 ft | 354 kts | 115° |
| 2026-05-07 17:13 | 51.79978 | -0.78986 | 10123 ft | 332 kts | 115° |
| 2026-05-07 17:13 | 51.78989 | -0.75713 | 9628 ft | 313 kts | 115° |
| 2026-05-07 17:14 | 51.78030 | -0.72661 | 9141 ft | 296 kts | 119° |
| 2026-05-07 17:14 | 51.76741 | -0.70217 | 8682 ft | 280 kts | 143° |
| 2026-05-07 17:14 | 51.75028 | -0.68968 | 8233 ft | 266 kts | 171° |
| 2026-05-07 17:14 | 51.73211 | -0.69032 | 7815 ft | 262 kts | 192° |
| 2026-05-07 17:15 | 51.71936 | -0.69483 | 7511 ft | 260 kts | 195° |
| 2026-05-07 17:15 | 51.70217 | -0.70193 | 7150 ft | 256 kts | 195° |
| 2026-05-07 17:15 | 51.68536 | -0.70908 | 7040 ft | 244 kts | 195° |
| 2026-05-07 17:15 | 51.66908 | -0.71600 | 7035 ft | 238 kts | 195° |
| 2026-05-07 17:16 | 51.65313 | -0.72277 | 7033 ft | 237 kts | 195° |
| 2026-05-07 17:16 | 51.63717 | -0.72953 | 6946 ft | 238 kts | 195° |
| 2026-05-07 17:16 | 51.62122 | -0.73628 | 6617 ft | 237 kts | 195° |
| 2026-05-07 17:16 | 51.60536 | -0.74303 | 6239 ft | 235 kts | 195° |
| 2026-05-07 17:17 | 51.58959 | -0.74975 | 5846 ft | 233 kts | 195° |
| 2026-05-07 17:17 | 51.57401 | -0.75639 | 5449 ft | 232 kts | 195° |
| 2026-05-07 17:17 | 51.55835 | -0.76312 | 5075 ft | 231 kts | 195° |
| 2026-05-07 17:17 | 51.54296 | -0.76977 | 4681 ft | 230 kts | 195° |
| 2026-05-07 17:18 | 51.52748 | -0.77654 | 4280 ft | 228 kts | 195° |
| 2026-05-07 17:18 | 51.51222 | -0.78322 | 3896 ft | 227 kts | 195° |
| 2026-05-07 17:18 | 51.49703 | -0.78912 | 3480 ft | 216 kts | 188° |
| 2026-05-07 17:18 | 51.48274 | -0.78605 | 3093 ft | 203 kts | 153° |
| 2026-05-07 17:19 | 51.47322 | -0.77144 | 2989 ft | 189 kts | 115° |
| 2026-05-07 17:19 | 51.47145 | -0.75125 | 2983 ft | 184 kts | 77° |
| 2026-05-07 17:19 | 51.47488 | -0.73161 | 2994 ft | 184 kts | 75° |
| 2026-05-07 17:19 | 51.47638 | -0.71116 | 2967 ft | 186 kts | 86° |
| 2026-05-07 17:20 | 51.47660 | -0.69042 | 2721 ft | 182 kts | 86° |
| 2026-05-07 17:20 | 51.47680 | -0.67084 | 2483 ft | 175 kts | 87° |
| 2026-05-07 17:20 | 51.47684 | -0.65176 | 2244 ft | 167 kts | 86° |
| 2026-05-07 17:20 | 51.47690 | -0.63371 | 2006 ft | 157 kts | 86° |
| 2026-05-07 17:21 | 51.47698 | -0.61675 | 1809 ft | 147 kts | 86° |
| 2026-05-07 17:21 | 51.47704 | -0.60078 | 1602 ft | 140 kts | 86° |
| 2026-05-07 17:21 | 51.47710 | -0.58551 | 1424 ft | 136 kts | 86° |
| 2026-05-07 17:21 | 51.47717 | -0.57013 | 1241 ft | 137 kts | 86° |
| 2026-05-07 17:22 | 51.47724 | -0.55490 | 1016 ft | 136 kts | 88° |
| 2026-05-07 17:22 | 51.47730 | -0.53984 | 815 ft | 134 kts | 90° |
| 2026-05-07 17:22 | 51.47735 | -0.52495 | 622 ft | 133 kts | 92° |
| 2026-05-07 17:22 | 51.47739 | -0.51000 | 429 ft | 132 kts | 92° |
| 2026-05-07 17:23 | 51.47745 | -0.49515 | 257 ft | 134 kts | 93° |
| 2026-05-07 17:23 | 51.47750 | -0.48008 | 103 ft | 131 kts | 90° |
| 2026-05-07 17:23 | 51.47755 | -0.46751 | 95 ft | 81 kts | 89° |
| 2026-05-07 17:23 | 51.47753 | -0.46262 | 91 ft | 26 kts | 105° |
| 2026-05-07 17:24 | 51.47665 | -0.46104 | 93 ft | 11 kts | 141° |
| 2026-05-07 17:24 | 51.47601 | -0.46048 | 90 ft | 0 kts | 157° |
| 2026-05-07 17:24 | 51.47600 | -0.46048 | 89 ft | 0 kts | 164° |
| 2026-05-07 17:24 | 51.47586 | -0.46051 | 92 ft | 5 kts | 187° |
| 2026-05-07 17:25 | 51.47550 | -0.46077 | 91 ft | 11 kts | 213° |
| 2026-05-07 17:25 | 51.47520 | -0.46210 | 91 ft | 14 kts | 264° |
| 2026-05-07 17:25 | 51.47514 | -0.46451 | 91 ft | 18 kts | 269° |
| 2026-05-07 17:25 | 51.47514 | -0.46581 | 91 ft | 0 kts | 270° |
| 2026-05-07 17:26 | 51.47514 | -0.46594 | 91 ft | 3 kts | 270° |
| 2026-05-07 17:26 | 51.47514 | -0.46653 | 91 ft | 7 kts | 270° |
| 2026-05-07 17:26 | 51.47503 | -0.46746 | 90 ft | 10 kts | 257° |
| 2026-05-07 17:26 | 51.47498 | -0.46874 | 91 ft | 13 kts | 272° |
| 2026-05-07 17:27 | 51.47498 | -0.47031 | 91 ft | 16 kts | 270° |
| 2026-05-07 17:27 | 51.47496 | -0.47170 | 92 ft | 0 kts | 268° |
| 2026-05-07 17:27 | 51.47495 | -0.47200 | 92 ft | 7 kts | 268° |
| 2026-05-07 17:27 | 51.47488 | -0.47300 | 89 ft | 8 kts | 248° |
| 2026-05-07 17:28 | 51.47437 | -0.47354 | 91 ft | 10 kts | 191° |
| 2026-05-07 17:28 | 51.47357 | -0.47360 | 88 ft | 13 kts | 179° |
| 2026-05-07 17:28 | 51.47261 | -0.47358 | 88 ft | 13 kts | 179° |
| 2026-05-07 17:28 | 51.47165 | -0.47356 | 88 ft | 15 kts | 179° |
| 2026-05-07 17:29 | 51.47054 | -0.47355 | 91 ft | 17 kts | 180° |
| 2026-05-07 17:29 | 51.46970 | -0.47355 | 91 ft | 12 kts | 180° |
| 2026-05-07 17:29 | 51.46884 | -0.47354 | 90 ft | 12 kts | 183° |
| 2026-05-07 17:29 | 51.46858 | -0.47390 | 91 ft | 5 kts | 245° |
| 2026-05-07 17:30 | 51.46851 | -0.47450 | 90 ft | 1 kts | 265° |
| 2026-05-07 17:30 | 51.46850 | -0.47466 | 89 ft | 4 kts | 265° |
| 2026-05-07 17:30 | 51.46850 | -0.47503 | 88 ft | 1 kts | 269° |